Time;durP1;ratioP1;P1;durP2;ratioP2;P2;SDS_P1;SDS_P2;PMS_P1;PMS_P2;Temp;Humidity;BMP_temperature;BMP_pressure;BME280_temperature;BME280_humidity;BME280_pressure;Samples;Min_cycle;Max_cycle;Signal;HPM_P1;HPM_P2
2023/10/31 00:02:06;;;;;;;10.50;7.70;;;;;;;12.24;88.74;98412.41;219231;1256;140701;-72
2023/10/31 00:07:10;;;;;;;16.30;9.30;;;;;;;12.25;89.02;98405.56;220503;1255;140411;-72
2023/10/31 00:12:15;;;;;;;16.20;9.50;;;;;;;12.29;88.89;98396.77;220689;1256;140537;-72
2023/10/31 00:17:19;;;;;;;14.60;8.90;;;;;;;12.32;88.82;98377.19;219635;1255;140724;-72
2023/10/31 00:22:24;;;;;;;19.20;9.00;;;;;;;12.35;88.68;98363.59;220252;1255;140534;-72
2023/10/31 00:27:30;;;;;;;9.80;7.30;;;;;;;12.38;88.73;98353.48;218980;1255;140034;-71
2023/10/31 00:32:35;;;;;;;9.30;7.10;;;;;;;12.41;88.88;98348.32;219314;1255;139784;-71
2023/10/31 00:37:40;;;;;;;10.90;6.80;;;;;;;12.43;89.00;98349.38;219570;1255;141232;-72
2023/10/31 00:42:45;;;;;;;10.50;7.90;;;;;;;12.44;88.68;98338.41;219115;1256;140694;-71
2023/10/31 00:47:50;;;;;;;9.10;6.30;;;;;;;12.45;88.62;98328.52;218944;1255;140644;-70
2023/10/31 00:52:55;;;;;;;10.70;7.20;;;;;;;12.45;88.64;98321.24;218693;1255;140240;-72
2023/10/31 00:58:00;;;;;;;12.60;8.20;;;;;;;12.42;88.49;98309.09;218472;1255;140127;-72
2023/10/31 01:03:05;;;;;;;13.90;8.80;;;;;;;12.37;88.41;98306.08;217984;1259;141024;-71
2023/10/31 01:08:08;;;;;;;11.40;8.00;;;;;;;12.32;88.38;98285.91;218789;1255;141642;-72
2023/10/31 01:13:12;;;;;;;10.50;8.00;;;;;;;12.29;88.40;98271.02;218232;1257;140742;-71
2023/10/31 01:18:17;;;;;;;12.40;7.50;;;;;;;12.26;88.36;98257.91;219301;1258;140834;-71
2023/10/31 01:23:22;;;;;;;10.40;6.60;;;;;;;12.25;88.55;98258.73;217548;1254;740786;-72
2023/10/31 01:28:27;;;;;;;7.70;5.80;;;;;;;12.24;88.55;98250.15;219289;1257;140676;-72
2023/10/31 01:33:32;;;;;;;10.40;5.90;;;;;;;12.23;88.71;98237.74;218424;1255;142362;-71
2023/10/31 01:38:37;;;;;;;14.50;8.50;;;;;;;12.24;88.62;98221.54;218107;1255;140047;-71
2023/10/31 01:43:41;;;;;;;10.60;6.20;;;;;;;12.23;88.57;98208.86;219615;1254;140670;-72
2023/10/31 01:48:46;;;;;;;9.60;6.70;;;;;;;12.22;88.60;98195.93;220056;1255;140721;-72
2023/10/31 01:53:51;;;;;;;6.60;4.90;;;;;;;12.24;88.75;98179.60;220053;1256;139769;-72
2023/10/31 01:58:56;;;;;;;5.80;5.20;;;;;;;12.27;88.74;98161.50;218982;1255;140620;-71
2023/10/31 02:04:02;;;;;;;11.00;6.40;;;;;;;12.29;88.87;98142.89;220741;1256;141473;-72
2023/10/31 02:09:07;;;;;;;9.70;7.50;;;;;;;12.32;88.99;98131.21;220650;1254;140183;-72
2023/10/31 02:14:11;;;;;;;12.10;6.80;;;;;;;12.34;88.71;98124.50;219608;1255;141678;-72
2023/10/31 02:19:20;;;;;;;10.90;6.00;;;;;;;12.37;88.69;98122.40;219030;1255;140996;-69
2023/10/31 02:24:24;;;;;;;7.80;5.30;;;;;;;12.38;88.48;98107.31;219762;1255;140836;-72
2023/10/31 02:29:29;;;;;;;7.70;4.70;;;;;;;12.34;88.23;98101.15;219411;1259;139654;-72
2023/10/31 02:34:34;;;;;;;7.80;5.20;;;;;;;12.31;88.27;98093.86;218955;1255;140254;-72
2023/10/31 02:39:39;;;;;;;7.70;5.30;;;;;;;12.31;88.68;98091.52;219021;1256;141359;-72
2023/10/31 02:44:43;;;;;;;13.70;7.20;;;;;;;12.33;88.67;98083.96;218271;1256;211066;-71
2023/10/31 02:49:48;;;;;;;7.50;5.70;;;;;;;12.35;88.83;98069.79;218298;1257;140057;-72
2023/10/31 02:54:53;;;;;;;12.90;7.20;;;;;;;12.37;88.95;98053.83;219353;1255;139845;-72
2023/10/31 02:59:57;;;;;;;8.80;5.40;;;;;;;12.40;88.84;98041.08;219056;1256;141697;-72
2023/10/31 03:05:02;;;;;;;8.60;4.50;;;;;;;12.44;89.25;98038.04;218621;1255;139671;-71
2023/10/31 03:10:07;;;;;;;9.80;4.80;;;;;;;12.49;88.89;98032.99;218521;1255;140475;-71
2023/10/31 03:15:11;;;;;;;9.80;4.60;;;;;;;12.55;88.94;98022.64;218873;1255;139898;-72
2023/10/31 03:20:15;;;;;;;7.20;4.40;;;;;;;12.61;89.07;98018.70;219132;1256;140735;-71
2023/10/31 03:25:20;;;;;;;4.80;3.80;;;;;;;12.67;88.95;97992.42;219312;1256;139550;-72
2023/10/31 03:30:25;;;;;;;10.00;4.40;;;;;;;12.72;88.74;97991.81;218381;1256;140018;-72
2023/10/31 03:35:30;;;;;;;5.80;4.70;;;;;;;12.74;88.69;97987.56;218744;1256;140111;-72
2023/10/31 03:40:34;;;;;;;5.40;4.50;;;;;;;12.72;88.60;97975.66;218192;1256;141678;-71
2023/10/31 03:45:40;;;;;;;6.40;4.70;;;;;;;12.72;88.32;97971.77;218802;1255;139729;-72
2023/10/31 03:50:44;;;;;;;7.90;4.10;;;;;;;12.73;88.56;97962.27;219881;1255;141810;-72
2023/10/31 03:55:48;;;;;;;7.50;4.70;;;;;;;12.78;88.23;97955.95;219899;1255;140053;-72
2023/10/31 04:00:53;;;;;;;5.00;3.90;;;;;;;12.81;88.15;97945.21;220605;1255;140095;-72
2023/10/31 04:05:57;;;;;;;6.80;5.10;;;;;;;12.89;88.40;97942.60;219898;1255;139544;-72
2023/10/31 04:11:01;;;;;;;7.00;3.90;;;;;;;12.98;88.25;97927.70;219587;1259;140302;-72
2023/10/31 04:16:06;;;;;;;8.60;4.20;;;;;;;13.03;87.98;97918.45;220204;1255;139809;-72
2023/10/31 04:21:11;;;;;;;6.30;4.00;;;;;;;13.05;87.90;97908.32;219773;1256;139951;-72
2023/10/31 04:26:15;;;;;;;12.50;4.00;;;;;;;13.04;87.98;97903.50;220695;1255;140192;-72
2023/10/31 04:31:20;;;;;;;8.00;3.60;;;;;;;13.01;87.89;97898.70;217878;1259;140420;-71
2023/10/31 04:36:42;;;;;;;11.00;4.60;;;;;;;12.98;88.03;97897.57;220400;1255;139839;-71
2023/10/31 04:41:46;;;;;;;5.10;3.70;;;;;;;12.97;87.91;97891.92;217987;1255;141298;-72
2023/10/31 04:46:51;;;;;;;11.40;4.70;;;;;;;12.97;88.25;97878.83;218709;1255;140623;-71
2023/10/31 04:51:56;;;;;;;6.20;3.80;;;;;;;13.00;88.05;97867.10;218422;1257;139967;-71
2023/10/31 04:57:03;;;;;;;7.30;3.60;;;;;;;13.02;88.01;97857.91;219321;1256;139583;-72
2023/10/31 05:02:10;;;;;;;6.20;4.00;;;;;;;13.02;87.81;97842.08;217888;1259;141222;-70
2023/10/31 05:07:15;;;;;;;7.50;3.60;;;;;;;13.01;87.85;97828.73;218784;1259;140513;-72
2023/10/31 05:12:20;;;;;;;3.90;3.20;;;;;;;13.00;87.76;97827.52;219016;1256;140121;-71
2023/10/31 05:17:23;;;;;;;3.90;2.90;;;;;;;12.98;88.08;97822.95;218264;1255;140068;-71
2023/10/31 05:22:28;;;;;;;4.40;3.00;;;;;;;12.99;88.37;97815.89;218589;1255;139685;-71
2023/10/31 05:27:33;;;;;;;3.80;2.20;;;;;;;13.01;88.60;97811.55;218429;1256;139859;-71
2023/10/31 05:32:39;;;;;;;3.80;3.10;;;;;;;13.09;88.71;97811.52;218506;1256;139886;-71
2023/10/31 05:37:45;;;;;;;3.00;2.30;;;;;;;13.18;88.84;97816.91;217771;1258;140859;-71
2023/10/31 05:42:50;;;;;;;4.90;3.70;;;;;;;13.28;88.57;97815.29;219766;1256;140234;-72
2023/10/31 05:47:54;;;;;;;4.20;2.30;;;;;;;13.38;88.52;97820.65;219071;1256;140613;-71
2023/10/31 05:52:58;;;;;;;4.60;2.30;;;;;;;13.47;88.09;97820.98;219818;1255;139992;-71
2023/10/31 05:58:02;;;;;;;4.80;2.90;;;;;;;13.59;87.89;97825.03;218801;1256;140205;-70
2023/10/31 06:03:08;;;;;;;2.80;2.60;;;;;;;13.68;87.56;97837.73;220113;1256;139331;-69
2023/10/31 06:08:13;;;;;;;5.40;3.00;;;;;;;13.77;87.40;97844.98;220113;1259;141535;-68
2023/10/31 06:13:17;;;;;;;8.60;3.30;;;;;;;13.84;87.09;97854.55;219475;1256;139883;-71
2023/10/31 06:18:21;;;;;;;2.60;2.20;;;;;;;13.87;87.08;97867.85;219118;1256;139746;-72
2023/10/31 06:23:26;;;;;;;4.80;2.40;;;;;;;13.85;87.03;97861.72;219401;1256;141496;-71
2023/10/31 06:28:36;;;;;;;5.20;1.90;;;;;;;13.83;87.28;97860.09;218651;1256;140699;-71
2023/10/31 06:33:51;;;;;;;2.70;2.20;;;;;;;13.87;87.19;97862.59;219029;1259;139854;-69
2023/10/31 06:38:56;;;;;;;4.80;2.40;;;;;;;13.86;87.15;97856.62;217939;1256;140259;-70
2023/10/31 06:44:00;;;;;;;4.20;2.40;;;;;;;13.86;87.18;97851.16;219371;1259;140941;-70
2023/10/31 06:49:04;;;;;;;3.40;2.00;;;;;;;13.86;86.83;97849.77;218300;1256;140390;-70
2023/10/31 06:54:08;;;;;;;3.70;2.30;;;;;;;13.91;86.84;97852.29;218262;1256;142149;-68
2023/10/31 06:59:15;;;;;;;4.90;2.70;;;;;;;13.97;86.70;97846.46;218217;1256;140849;-68
2023/10/31 07:04:19;;;;;;;11.70;2.90;;;;;;;14.08;86.68;97851.23;217855;1259;140695;-69
2023/10/31 07:09:25;;;;;;;28.80;2.40;;;;;;;14.20;86.32;97848.14;218162;1256;140601;-68
2023/10/31 07:14:30;;;;;;;4.70;2.50;;;;;;;14.28;86.19;97844.55;218942;1255;141124;-70
2023/10/31 07:19:35;;;;;;;5.80;3.40;;;;;;;14.33;85.92;97842.52;217541;1256;140229;-69
2023/10/31 07:24:40;;;;;;;6.30;2.30;;;;;;;14.39;85.62;97834.77;218453;1256;140213;-68
2023/10/31 07:29:46;;;;;;;3.60;2.00;;;;;;;14.50;85.46;97833.27;217690;1256;140402;-68
2023/10/31 07:34:51;;;;;;;5.30;2.30;;;;;;;14.64;85.16;97829.30;218214;1256;139524;-69
2023/10/31 07:39:56;;;;;;;6.40;2.40;;;;;;;14.78;84.78;97827.84;219275;1256;139823;-70
2023/10/31 07:45:01;;;;;;;3.70;2.30;;;;;;;14.93;84.27;97834.53;219352;1259;139953;-69
2023/10/31 07:50:06;;;;;;;3.00;2.70;;;;;;;15.05;83.52;97842.89;219545;1256;139955;-70
2023/10/31 07:55:11;;;;;;;5.50;2.00;;;;;;;15.14;83.17;97846.56;217957;1257;140037;-69
2023/10/31 08:00:18;;;;;;;2.10;1.80;;;;;;;15.23;82.98;97849.52;218674;1259;139931;-70
2023/10/31 08:05:22;;;;;;;4.20;1.70;;;;;;;15.31;82.58;97854.86;220533;1256;139719;-70
2023/10/31 08:10:27;;;;;;;6.80;2.00;;;;;;;15.38;82.22;97863.63;219584;1256;139481;-69
2023/10/31 08:15:31;;;;;;;3.80;2.40;;;;;;;15.44;82.19;97870.14;219326;1256;141755;-70
2023/10/31 08:20:35;;;;;;;2.50;1.80;;;;;;;15.41;82.27;97879.06;219270;1256;139458;-69
2023/10/31 08:25:39;;;;;;;2.60;1.90;;;;;;;15.28;82.34;97880.34;219854;1256;140967;-71
2023/10/31 08:30:44;;;;;;;3.80;2.10;;;;;;;15.09;82.82;97879.16;218126;1257;140609;-67
2023/10/31 08:35:50;;;;;;;7.70;2.40;;;;;;;15.00;83.45;97876.30;218404;1257;140430;-69
2023/10/31 08:40:56;;;;;;;2.30;1.90;;;;;;;14.95;83.94;97889.95;218405;1256;140632;-68
2023/10/31 08:46:00;;;;;;;3.80;2.30;;;;;;;14.89;84.30;97901.28;218257;1256;139813;-68
2023/10/31 08:51:05;;;;;;;3.70;2.50;;;;;;;14.79;84.61;97911.16;218355;1259;139764;-68
2023/10/31 08:56:10;;;;;;;6.90;2.70;;;;;;;14.69;85.10;97918.20;218532;1259;140815;-69
2023/10/31 09:01:15;;;;;;;2.60;1.60;;;;;;;14.57;85.49;97923.20;219828;1256;139930;-70
2023/10/31 09:06:21;;;;;;;4.70;2.30;;;;;;;14.54;86.00;97918.44;217823;1259;141286;-70
2023/10/31 09:11:26;;;;;;;5.30;2.30;;;;;;;14.59;86.34;97924.52;218751;1259;139747;-70
2023/10/31 09:16:31;;;;;;;6.00;2.50;;;;;;;14.62;86.62;97935.79;217979;1256;140079;-70
2023/10/31 09:21:36;;;;;;;4.70;2.40;;;;;;;14.59;86.68;97940.27;219083;1259;140098;-71
2023/10/31 09:26:46;;;;;;;5.20;2.90;;;;;;;14.58;86.74;97940.39;219678;1256;139713;-72
2023/10/31 09:31:54;;;;;;;3.70;2.40;;;;;;;14.58;86.86;97956.16;218137;1257;140022;-70
2023/10/31 09:37:06;;;;;;;6.20;2.70;;;;;;;14.57;87.01;97968.46;218805;1257;140383;-70
2023/10/31 09:42:17;;;;;;;2.90;2.30;;;;;;;14.50;87.07;97969.73;220019;1257;140761;-71
2023/10/31 09:47:26;;;;;;;5.80;3.30;;;;;;;14.42;87.38;97975.95;220573;1256;139532;-71
2023/10/31 09:52:35;;;;;;;3.70;2.40;;;;;;;14.37;87.49;97981.69;220311;1257;139889;-71
2023/10/31 09:57:42;;;;;;;2.90;2.60;;;;;;;14.35;87.77;97990.55;219665;1255;140662;-72
2023/10/31 10:02:52;;;;;;;5.10;2.40;;;;;;;14.37;87.97;97996.95;218557;1259;140269;-70
2023/10/31 10:08:10;;;;;;;5.70;2.50;;;;;;;14.41;88.16;98005.15;219428;1256;140289;-69
2023/10/31 10:13:23;;;;;;;7.40;3.90;;;;;;;14.49;88.11;98003.65;218175;1259;140093;-69
2023/10/31 10:18:34;;;;;;;4.00;2.30;;;;;;;14.58;88.21;98006.80;219498;1259;140361;-70
2023/10/31 10:23:41;;;;;;;2.00;1.80;;;;;;;14.67;88.26;98018.93;218372;1259;140049;-69
2023/10/31 10:28:49;;;;;;;2.50;1.80;;;;;;;14.66;88.09;98028.80;217936;1257;140595;-69
2023/10/31 10:34:01;;;;;;;3.40;2.40;;;;;;;14.65;88.13;98035.22;218648;1259;140276;-70
2023/10/31 10:39:09;;;;;;;4.00;2.20;;;;;;;14.67;88.25;98034.73;217941;1257;141358;-69
2023/10/31 10:44:15;;;;;;;3.10;2.20;;;;;;;14.84;88.52;98041.59;218883;1259;140969;-69
2023/10/31 10:49:22;;;;;;;2.30;2.10;;;;;;;14.97;88.28;98055.23;218128;1256;139868;-68
2023/10/31 10:54:32;;;;;;;;;;;;;;;15.03;88.24;98056.85;218159;1259;139580;-70
2023/10/31 10:59:42;;;;;;;2.30;1.30;;;;;;;15.06;88.11;98065.27;219062;1260;126911;-68
2023/10/31 11:04:49;;;;;;;3.20;2.00;;;;;;;15.01;87.63;98079.38;218461;1257;140529;-71
2023/10/31 11:09:56;;;;;;;2.60;1.70;;;;;;;14.90;87.39;98094.63;218344;1257;139702;-69
2023/10/31 11:15:03;;;;;;;2.90;1.70;;;;;;;14.85;87.39;98109.71;218231;1260;140633;-69
2023/10/31 11:20:10;;;;;;;2.00;1.80;;;;;;;14.82;87.34;98122.05;218695;1257;139748;-69
2023/10/31 11:25:23;;;;;;;1.60;1.50;;;;;;;14.82;87.07;98125.15;220268;1257;142582;-69
2023/10/31 11:30:36;;;;;;;1.40;1.30;;;;;;;14.84;86.91;98133.88;220090;1257;140064;-68
2023/10/31 11:35:44;;;;;;;1.10;1.10;;;;;;;14.79;86.46;98132.09;218472;1259;140362;-70
2023/10/31 11:40:49;;;;;;;1.40;1.30;;;;;;;14.85;86.33;98132.30;220516;1255;140617;-70
2023/10/31 11:45:57;;;;;;;2.80;2.00;;;;;;;14.87;86.04;98127.11;220285;1257;139836;-68
2023/10/31 11:51:04;;;;;;;3.70;1.40;;;;;;;14.88;85.86;98126.81;219327;1257;140131;-68
2023/10/31 11:56:10;;;;;;;1.40;1.10;;;;;;;14.90;85.69;98124.15;220499;1255;139847;-69
2023/10/31 12:01:19;;;;;;;2.30;2.00;;;;;;;14.89;85.24;98123.98;220278;1257;140697;-69
2023/10/31 12:06:26;;;;;;;6.00;1.20;;;;;;;14.81;84.88;98140.59;219759;1257;140751;-69
2023/10/31 12:11:31;;;;;;;1.40;1.30;;;;;;;14.71;84.80;98134.50;218478;1258;139814;-68
2023/10/31 12:16:38;;;;;;;1.40;1.30;;;;;;;14.69;84.90;98127.63;218062;1257;140322;-68
2023/10/31 12:21:46;;;;;;;1.60;1.20;;;;;;;14.87;85.15;98143.47;219876;1257;140545;-69
2023/10/31 12:26:52;;;;;;;1.60;1.00;;;;;;;15.07;84.65;98155.58;217885;1258;139449;-68
2023/10/31 12:31:57;;;;;;;0.90;0.80;;;;;;;15.13;84.27;98158.92;219204;1257;140346;-71
2023/10/31 12:37:03;;;;;;;1.20;1.10;;;;;;;15.23;83.91;98162.42;218201;1257;139806;-72
2023/10/31 12:42:07;;;;;;;1.60;0.80;;;;;;;15.24;83.74;98166.48;217797;1256;140787;-69
2023/10/31 12:47:22;;;;;;;2.20;1.40;;;;;;;15.20;83.39;98147.24;218694;1257;142196;-69
2023/10/31 12:52:46;;;;;;;3.80;1.20;;;;;;;15.02;82.89;98145.65;218435;1254;139594;-70
2023/10/31 12:57:52;;;;;;;0.50;0.50;;;;;;;14.93;82.86;98143.98;218272;1259;140548;-72
2023/10/31 13:03:08;;;;;;;2.10;1.30;;;;;;;14.87;82.65;98155.96;219314;1256;139901;-68
2023/10/31 13:08:17;;;;;;;1.10;1.10;;;;;;;14.87;82.69;98163.16;218140;1257;140423;-69
2023/10/31 13:13:21;;;;;;;0.90;0.90;;;;;;;14.93;82.69;98159.19;218155;1257;140095;-70
2023/10/31 13:18:25;;;;;;;1.00;1.00;;;;;;;15.01;82.72;98172.57;219056;1256;140800;-71
2023/10/31 13:23:32;;;;;;;1.10;1.00;;;;;;;15.09;82.72;98173.09;217879;1257;558793;-74
2023/10/31 13:28:39;;;;;;;0.80;0.80;;;;;;;15.09;82.59;98180.06;218202;1256;140118;-74
2023/10/31 13:33:46;;;;;;;1.30;0.80;;;;;;;15.00;82.36;98190.84;217962;1257;139703;-72
2023/10/31 13:38:50;;;;;;;1.40;1.10;;;;;;;14.86;82.11;98189.89;219811;1254;139996;-75
2023/10/31 13:43:55;;;;;;;2.40;1.20;;;;;;;14.73;82.24;98199.27;220398;1256;140246;-71
2023/10/31 13:49:03;;;;;;;1.30;1.20;;;;;;;14.68;82.39;98210.64;218861;1257;140238;-75
2023/10/31 13:54:10;;;;;;;0.70;0.70;;;;;;;14.63;82.35;98218.69;219735;1254;141521;-73
2023/10/31 13:59:15;;;;;;;0.70;0.70;;;;;;;14.62;82.49;98223.70;219674;1255;139710;-71
2023/10/31 14:04:23;;;;;;;10.30;1.30;;;;;;;14.55;82.08;98222.70;219132;1256;140976;-72
2023/10/31 14:09:29;;;;;;;3.80;0.90;;;;;;;14.41;81.40;98231.25;219343;1256;140267;-70
2023/10/31 14:14:35;;;;;;;1.60;0.80;;;;;;;14.33;81.41;98227.00;219340;1256;140370;-72
2023/10/31 14:19:42;;;;;;;0.90;0.90;;;;;;;14.31;81.21;98223.98;218629;1257;140364;-73
2023/10/31 14:24:50;;;;;;;4.10;1.70;;;;;;;14.28;80.78;98228.20;218119;1257;140878;-71
2023/10/31 14:29:59;;;;;;;0.90;0.90;;;;;;;14.22;80.62;98225.41;219176;1256;140909;-70
2023/10/31 14:35:06;;;;;;;1.10;1.10;;;;;;;14.14;80.30;98234.39;219420;1256;139692;-71
2023/10/31 14:40:12;;;;;;;2.20;1.50;;;;;;;14.03;79.92;98255.42;217900;1256;140332;-71
2023/10/31 14:45:19;;;;;;;1.20;1.10;;;;;;;13.90;79.47;98273.53;218377;1257;139540;-69
2023/10/31 14:50:24;;;;;;;1.40;1.00;;;;;;;13.79;79.29;98287.14;217934;1256;140630;-71
2023/10/31 14:55:33;;;;;;;1.60;1.30;;;;;;;13.69;78.95;98297.95;218484;1257;140110;-71
2023/10/31 15:00:39;;;;;;;4.00;1.30;;;;;;;13.56;78.71;98312.58;218597;1255;140546;-72
2023/10/31 15:05:45;;;;;;;0.80;0.60;;;;;;;13.45;78.57;98314.12;218199;1259;139474;-71
2023/10/31 15:10:52;;;;;;;0.90;0.80;;;;;;;13.39;78.39;98315.44;218095;1256;140309;-70
2023/10/31 15:15:58;;;;;;;5.80;1.10;;;;;;;13.34;78.26;98317.05;219029;1255;140218;-71
2023/10/31 15:21:06;;;;;;;0.80;0.80;;;;;;;13.27;78.20;98305.73;218007;1256;141005;-70
2023/10/31 15:26:16;;;;;;;1.40;1.30;;;;;;;13.24;78.24;98296.30;218805;1255;139725;-71
2023/10/31 15:31:22;;;;;;;1.30;1.20;;;;;;;13.24;78.26;98287.47;219033;1256;139405;-72
2023/10/31 15:36:31;;;;;;;2.60;1.10;;;;;;;13.19;78.03;98281.69;218208;1259;139879;-70
2023/10/31 15:41:51;;;;;;;1.40;1.20;;;;;;;13.11;77.90;98301.58;218492;1256;139888;-70
2023/10/31 15:47:00;;;;;;;11.40;2.10;;;;;;;13.04;78.01;98311.18;219430;1256;140062;-73
2023/10/31 15:52:12;;;;;;;2.70;2.10;;;;;;;12.97;78.12;98318.57;219664;1256;140232;-72
2023/10/31 15:57:22;;;;;;;2.80;1.60;;;;;;;12.94;78.15;98313.25;218948;1256;139979;-75
2023/10/31 16:02:35;;;;;;;3.10;2.80;;;;;;;12.91;78.28;98301.41;219067;1256;235088;-73
2023/10/31 16:07:49;;;;;;;2.60;2.10;;;;;;;12.87;78.53;98300.92;217884;1259;139191;-71
2023/10/31 16:12:52;;;;;;;2.50;2.10;;;;;;;12.77;78.43;98309.23;218660;1256;139509;-71
2023/10/31 16:17:55;;;;;;;2.10;1.20;;;;;;;12.65;78.35;98309.77;219024;1255;139957;-71
2023/10/31 16:22:59;;;;;;;18.70;8.40;;;;;;;12.53;78.36;98315.77;217702;1259;139832;-71
2023/10/31 16:28:03;;;;;;;61.80;36.20;;;;;;;12.44;78.61;98331.94;218400;1256;141004;-72
2023/10/31 16:33:07;;;;;;;18.10;9.10;;;;;;;12.38;78.88;98341.61;218562;1258;140248;-71
2023/10/31 16:38:12;;;;;;;6.90;4.40;;;;;;;12.35;79.26;98349.27;217997;1257;139492;-69
2023/10/31 16:43:22;;;;;;;6.30;3.10;;;;;;;12.29;79.13;98351.02;218483;1255;139607;-71
2023/10/31 16:48:27;;;;;;;;;;;;;;;12.22;79.25;98357.61;218288;1256;139546;-70
2023/10/31 16:53:31;;;;;;;9.90;3.50;;;;;;;12.16;79.42;98357.92;219301;1255;125876;-69
2023/10/31 16:58:34;;;;;;;2.20;1.70;;;;;;;12.08;79.30;98368.13;218967;1255;139888;-70
2023/10/31 17:03:39;;;;;;;3.10;2.20;;;;;;;12.00;79.38;98357.33;219359;1253;140168;-71
2023/10/31 17:08:43;;;;;;;4.00;3.10;;;;;;;11.96;79.32;98363.83;218286;1259;139835;-68
2023/10/31 17:13:46;;;;;;;3.80;2.80;;;;;;;11.89;79.65;98363.34;218871;1254;139549;-71
2023/10/31 17:18:50;;;;;;;5.50;2.60;;;;;;;11.80;79.32;98373.58;218296;1257;139894;-71
2023/10/31 17:24:03;;;;;;;3.80;1.60;;;;;;;11.69;79.50;98388.82;219377;1254;140521;-71
2023/10/31 17:29:10;;;;;;;2.50;2.10;;;;;;;11.56;79.58;98389.42;219919;1254;141252;-71
2023/10/31 17:34:37;;;;;;;2.80;2.50;;;;;;;11.49;80.09;98385.55;218513;1256;139567;-71
2023/10/31 17:39:52;;;;;;;3.30;2.40;;;;;;;11.46;80.14;98385.08;218189;1256;140760;-70
2023/10/31 17:45:07;;;;;;;2.00;1.80;;;;;;;11.41;80.13;98393.38;219642;1255;139439;-69
2023/10/31 17:50:17;;;;;;;2.80;1.70;;;;;;;11.34;80.14;98401.81;219478;1256;140504;-70
2023/10/31 17:55:23;;;;;;;3.00;2.20;;;;;;;11.30;80.20;98412.26;218642;1256;139393;-70
2023/10/31 18:00:32;;;;;;;1.80;1.70;;;;;;;11.29;80.49;98416.15;218870;1256;141857;-69
2023/10/31 18:05:45;;;;;;;2.30;2.00;;;;;;;11.22;80.25;98429.35;220321;1255;226698;-69
2023/10/31 18:10:52;;;;;;;3.10;2.20;;;;;;;11.20;80.50;98441.40;219130;1255;140046;-73
2023/10/31 18:16:04;;;;;;;3.20;1.90;;;;;;;11.16;80.44;98440.18;218873;1255;140421;-73
2023/10/31 18:21:12;;;;;;;7.40;2.80;;;;;;;11.12;80.40;98448.61;218108;1256;140203;-73
2023/10/31 18:26:19;;;;;;;4.70;3.30;;;;;;;11.09;80.35;98469.10;219646;1255;139855;-73
2023/10/31 18:31:25;;;;;;;3.80;2.70;;;;;;;11.08;80.45;98467.17;218051;1256;139761;-71
2023/10/31 18:36:31;;;;;;;4.30;2.40;;;;;;;11.09;80.41;98464.35;218617;1257;139881;-72
2023/10/31 18:41:43;;;;;;;3.10;2.40;;;;;;;11.12;80.51;98472.09;217908;1254;139970;-72
2023/10/31 18:47:12;;;;;;;5.20;2.60;;;;;;;11.15;80.57;98475.61;218001;1259;141086;-73
2023/10/31 18:52:18;;;;;;;6.60;3.20;;;;;;;11.18;80.67;98491.82;217966;1256;140316;-72
2023/10/31 18:57:32;;;;;;;2.20;1.90;;;;;;;11.19;80.31;98496.56;217617;1257;140086;-70
2023/10/31 19:03:04;;;;;;;22.50;2.70;;;;;;;11.21;80.04;98488.98;218032;1255;140968;-71
2023/10/31 19:08:29;;;;;;;2.90;1.70;;;;;;;11.23;80.13;98496.03;218601;1255;140191;-72
2023/10/31 19:13:49;;;;;;;1.90;1.70;;;;;;;11.24;80.08;98501.58;217682;1257;140154;-70
2023/10/31 19:19:11;;;;;;;3.20;1.50;;;;;;;11.28;79.99;98501.69;219607;1255;139922;-73
2023/10/31 19:24:24;;;;;;;2.30;1.90;;;;;;;11.29;80.00;98509.42;217681;1256;139774;-72
2023/10/31 19:29:32;;;;;;;2.80;1.90;;;;;;;11.32;79.82;98502.73;218736;1257;139885;-72
2023/10/31 19:34:45;;;;;;;5.70;2.70;;;;;;;11.35;79.82;98505.50;218689;1256;139987;-69
2023/10/31 19:40:00;;;;;;;3.60;1.60;;;;;;;11.36;79.65;98513.44;220357;1256;141322;-72
2023/10/31 19:45:08;;;;;;;2.10;1.60;;;;;;;11.42;79.50;98534.67;220471;1256;140528;-72
2023/10/31 19:50:12;;;;;;;2.50;2.10;;;;;;;11.47;79.32;98543.96;218362;1257;140550;-71
2023/10/31 19:55:17;;;;;;;2.20;1.90;;;;;;;11.50;79.46;98546.95;220449;1256;139653;-73
2023/10/31 20:00:24;;;;;;;5.30;2.30;;;;;;;11.50;79.33;98548.39;218918;1256;139932;-72
2023/10/31 20:05:29;;;;;;;;;;;;;;;11.48;79.18;98544.49;218527;1256;139762;-72
2023/10/31 20:10:35;;;;;;;2.00;1.40;;;;;;;11.42;79.28;98546.31;220576;1256;126718;-72
2023/10/31 20:15:44;;;;;;;2.90;1.80;;;;;;;11.40;79.19;98545.30;220061;1255;140501;-73
2023/10/31 20:20:51;;;;;;;2.20;1.80;;;;;;;11.40;79.34;98543.06;219157;1255;140340;-72
2023/10/31 20:25:57;;;;;;;3.10;2.10;;;;;;;11.38;79.43;98541.73;217933;1255;139765;-72
2023/10/31 20:31:01;;;;;;;2.80;1.70;;;;;;;11.35;79.45;98543.48;218484;1255;139204;-72
2023/10/31 20:36:05;;;;;;;3.60;2.50;;;;;;;11.31;79.46;98546.86;218862;1255;140369;-72
2023/10/31 20:41:09;;;;;;;3.30;2.30;;;;;;;11.29;79.38;98548.74;218463;1256;139655;-72
2023/10/31 20:46:12;;;;;;;2.50;1.70;;;;;;;11.27;79.44;98557.33;218122;1255;140178;-72
2023/10/31 20:51:16;;;;;;;1.50;1.30;;;;;;;11.26;79.60;98565.45;218162;1256;140130;-72
2023/10/31 20:56:19;;;;;;;1.60;1.50;;;;;;;11.24;79.68;98568.96;219009;1256;140120;-72
2023/10/31 21:01:23;;;;;;;2.20;1.60;;;;;;;11.24;79.63;98578.41;217980;1256;140087;-70
2023/10/31 21:06:28;;;;;;;4.40;1.60;;;;;;;11.24;79.91;98583.42;217862;1255;140677;-72
2023/10/31 21:11:33;;;;;;;2.30;2.10;;;;;;;11.24;79.40;98585.82;218371;1255;139831;-71
2023/10/31 21:16:36;;;;;;;12.60;3.20;;;;;;;11.20;79.75;98587.52;218671;1255;139986;-71
2023/10/31 21:21:39;;;;;;;2.40;1.60;;;;;;;11.17;79.64;98599.68;218496;1256;139681;-72
2023/10/31 21:26:43;;;;;;;5.60;2.10;;;;;;;11.15;79.57;98606.09;218126;1256;139741;-71
2023/10/31 21:31:47;;;;;;;1.90;1.50;;;;;;;11.14;79.65;98600.48;217900;1256;141016;-71
2023/10/31 21:36:51;;;;;;;2.70;2.00;;;;;;;11.13;79.55;98587.14;219358;1255;140687;-72
2023/10/31 21:41:56;;;;;;;1.70;1.50;;;;;;;11.12;79.22;98590.50;220549;1255;140011;-72
2023/10/31 21:47:05;;;;;;;4.40;1.40;;;;;;;11.13;79.55;98595.20;220482;1255;140396;-72
2023/10/31 21:52:12;;;;;;;;;;;;;;;11.14;79.30;98605.55;220655;1255;141178;-72
2023/10/31 21:57:16;;;;;;;1.30;1.00;;;;;;;11.12;79.12;98611.30;220418;1255;126819;-72
2023/10/31 22:02:20;;;;;;;1.50;1.20;;;;;;;11.12;78.78;98622.45;219542;1255;140032;-71
2023/10/31 22:07:26;;;;;;;1.10;1.00;;;;;;;11.10;78.59;98628.52;218795;1259;141097;-71
2023/10/31 22:12:31;;;;;;;0.90;0.80;;;;;;;11.07;78.66;98629.74;218751;1258;140907;-71
2023/10/31 22:17:37;;;;;;;1.40;1.30;;;;;;;11.02;78.61;98636.62;219572;1255;140707;-70
2023/10/31 22:22:43;;;;;;;1.40;1.00;;;;;;;10.97;78.47;98652.41;218729;1256;141496;-70
2023/10/31 22:27:47;;;;;;;4.10;1.90;;;;;;;10.92;78.49;98675.70;219130;1255;140820;-71
2023/10/31 22:32:52;;;;;;;2.80;1.40;;;;;;;10.86;78.31;98690.88;218231;1255;139548;-71
2023/10/31 22:37:57;;;;;;;1.60;1.30;;;;;;;10.81;78.47;98698.70;217938;1255;139480;-70
2023/10/31 22:43:03;;;;;;;1.00;1.00;;;;;;;10.79;78.49;98701.67;218934;1256;139797;-71
2023/10/31 22:48:07;;;;;;;1.20;1.00;;;;;;;10.76;78.59;98703.89;218650;1255;139523;-70
2023/10/31 22:53:12;;;;;;;4.20;0.90;;;;;;;10.68;78.38;98704.20;218169;1255;140400;-71
2023/10/31 22:58:17;;;;;;;3.90;1.20;;;;;;;10.64;78.59;98709.25;218036;1256;141092;-72
2023/10/31 23:03:20;;;;;;;3.20;1.60;;;;;;;10.62;78.74;98720.48;218670;1259;140131;-72
2023/10/31 23:08:25;;;;;;;5.20;1.50;;;;;;;10.59;78.82;98728.99;218126;1255;139683;-71
2023/10/31 23:13:31;;;;;;;3.70;1.40;;;;;;;10.55;79.14;98733.08;217753;1256;139668;-71
2023/10/31 23:18:39;;;;;;;1.90;1.40;;;;;;;10.50;79.16;98735.48;219940;1256;139862;-71
2023/10/31 23:23:44;;;;;;;;;;;;;;;10.46;79.43;98741.53;217736;1256;140003;-71
2023/10/31 23:28:50;;;;;;;2.30;2.10;;;;;;;10.42;80.04;98743.00;220371;1255;127151;-71